Airfield :







YOU CAN JOIN US ON...

 
LOGIN :

Register | Disclaimer

   EN    FR    IT 

 









Legend :    VFR   Marginal VFR   IFR   Intensive IFR   Very Intensive IFR
Visi :
Ceiling :
>= 8 km
>= 3000ft
5 to 8 km
1000 to 3000 ft
1500m to 5 km
500 to 1000 ft
800 to 1500m
200 to 500 ft
< 800m
< 200 ft
Symbols :   Thunderstorms  Fog  Heavy snow  Heavy precipitations  Wind > 20 kt






- Airport Elevation : 70 ft


KIWI - Wiscasset

CURRENT METAR :
  • 192053Z AUTO 21010G14KT 10SM SCT065 27/16 A3003 RMK AO2 SLP167 T02720156 58002

EXPIRED METARs :
  • 191953Z AUTO VRB03KT 10SM BKN065 28/13 A3003 RMK AO2 SLP168 T02830133
  • 191853Z AUTO VRB04KT 10SM CLR 28/14 A3004 RMK AO2 SLP170 T02830139
  • 191753Z AUTO VRB03KT 10SM BKN060 27/13 A3004 RMK AO2 SLP170 T02720133 10278 20200 58005
  • 191653Z AUTO 00000KT 10SM CLR 27/15 A3004 RMK AO2 SLP171 T02670150

TAF N/A
KZBW FIR / North America



MET'MAP, your aeronautical weather chart ! - Copyright ORBIFLY December 2007 - Disclaimer

ORBIFLY MET'MAP TEAM :

Programming & Development : Alexandra Zaïnal
Original concept : Baudouin d'Aumeries
Technical & hardware support : Manuel Goepfert
Assistance : Marc-Olivier Méhu




SOURCES & CREDITS :

   NOAA